createdAt,value
2019-04-04T00:01:17.768Z,9.14
2019-04-04T00:03:46.473Z,9.13
2019-04-04T00:06:15.490Z,9.11
2019-04-04T00:08:44.239Z,9.09
2019-04-04T00:11:13.331Z,9.08
2019-04-04T00:13:42.613Z,9.04
2019-04-04T00:16:11.778Z,9.01
2019-04-04T00:18:40.918Z,8.97
2019-04-04T00:21:09.888Z,8.90
2019-04-04T00:23:38.949Z,8.86
2019-04-04T00:26:08.858Z,8.75
2019-04-04T00:28:38.660Z,8.66
2019-04-04T00:31:07.615Z,8.57
2019-04-04T00:33:36.716Z,8.46
2019-04-04T00:36:05.733Z,8.40
2019-04-04T00:38:36.072Z,8.37
2019-04-04T00:41:05.301Z,8.31
2019-04-04T00:43:34.250Z,8.24
2019-04-04T00:46:03.195Z,8.20
2019-04-04T00:48:34.149Z,8.19
2019-04-04T00:51:02.973Z,8.13
2019-04-04T00:53:31.700Z,8.10
2019-04-04T00:56:00.591Z,8.05
2019-04-04T00:58:29.801Z,8.00
2019-04-04T01:00:58.900Z,7.93
2019-04-04T01:03:28.100Z,7.90
2019-04-04T01:05:58.750Z,7.84
2019-04-04T01:08:27.703Z,7.82
2019-04-04T01:10:56.867Z,7.81
2019-04-04T01:13:27.518Z,7.79
2019-04-04T01:15:56.569Z,7.78
2019-04-04T01:18:25.522Z,7.80
2019-04-04T01:20:58.746Z,7.79
2019-04-04T01:23:27.740Z,7.78
2019-04-04T01:25:56.862Z,7.74
2019-04-04T01:28:25.859Z,7.69
2019-04-04T01:30:54.805Z,7.66
2019-04-04T01:33:23.748Z,7.67
2019-04-04T01:35:53.953Z,7.67
2019-04-04T01:38:23.296Z,7.67
2019-04-04T01:40:54.917Z,7.67
2019-04-04T01:43:22.922Z,7.65
2019-04-04T01:45:51.649Z,7.61
2019-04-04T01:48:20.601Z,7.60
2019-04-04T01:50:49.639Z,7.58
2019-04-04T01:53:18.597Z,7.55
2019-04-04T01:55:47.649Z,7.51
2019-04-04T01:58:16.346Z,7.51
2019-04-04T02:00:46.025Z,7.49
2019-04-04T02:03:15.297Z,7.49
2019-04-04T02:05:44.305Z,7.49
2019-04-04T02:08:13.265Z,7.48
2019-04-04T02:10:43.045Z,7.46
2019-04-04T02:13:12.007Z,7.48
2019-04-04T02:15:40.792Z,7.48
2019-04-04T02:18:09.734Z,7.48
2019-04-04T02:20:38.686Z,7.50
2019-04-04T02:23:07.693Z,7.52
2019-04-04T02:25:36.486Z,7.53
2019-04-04T02:28:08.569Z,7.50
2019-04-04T02:30:35.999Z,7.48
2019-04-04T02:33:04.918Z,7.44
2019-04-04T02:35:33.956Z,7.41
2019-04-04T02:38:02.898Z,7.37
2019-04-04T02:40:31.911Z,7.32
2019-04-04T02:43:00.945Z,7.29
2019-04-04T02:45:29.897Z,7.25
2019-04-04T02:47:58.755Z,7.20
2019-04-04T02:50:27.787Z,7.18
2019-04-04T02:52:56.879Z,7.15
2019-04-04T02:55:29.879Z,7.08
2019-04-04T02:57:56.593Z,7.05
2019-04-04T03:00:26.976Z,7.04
2019-04-04T03:02:56.244Z,7.02
2019-04-04T03:05:25.273Z,7.00
2019-04-04T03:07:54.150Z,6.98
2019-04-04T03:10:23.097Z,6.96
2019-04-04T03:12:51.970Z,6.92
2019-04-04T03:15:23.438Z,6.87
2019-04-04T03:17:52.406Z,6.85
2019-04-04T03:20:21.341Z,6.81
2019-04-04T03:22:50.394Z,6.79
2019-04-04T03:25:20.380Z,6.75
2019-04-04T03:27:49.543Z,6.70
2019-04-04T03:30:18.299Z,6.64
2019-04-04T03:32:52.136Z,6.58
2019-04-04T03:35:25.765Z,6.54
2019-04-04T03:37:48.297Z,6.51
2019-04-04T03:40:17.059Z,6.49
2019-04-04T03:42:46.002Z,6.46
2019-04-04T03:45:15.026Z,6.44
2019-04-04T03:47:44.811Z,6.41
2019-04-04T03:50:13.706Z,6.36
2019-04-04T03:52:44.396Z,6.36
2019-04-04T03:55:13.403Z,6.34
2019-04-04T03:57:42.175Z,6.33
2019-04-04T04:00:12.546Z,6.33
2019-04-04T04:02:41.498Z,6.33
2019-04-04T04:05:25.560Z,6.31
2019-04-04T04:12:22.996Z,6.27
2019-04-04T04:15:38.907Z,6.21
2019-04-04T04:18:59.851Z,6.16
2019-04-04T04:22:12.941Z,6.14
2019-04-04T04:25:23.341Z,5.45
2019-04-04T04:28:44.788Z,6.08
2019-04-04T04:30:46.449Z,6.03
2019-04-04T04:33:45.688Z,6.00
2019-04-04T04:36:15.208Z,5.97
2019-04-04T04:39:16.501Z,5.96
2019-04-04T04:42:01.945Z,5.95
2019-04-04T04:45:00.922Z,5.96
2019-04-04T04:47:29.926Z,5.94
2019-04-04T04:49:58.873Z,5.98
2019-04-04T04:52:27.594Z,6.01
2019-04-04T04:54:56.312Z,6.04
2019-04-04T04:57:30.080Z,6.10
2019-04-04T04:59:55.716Z,6.15
2019-04-04T05:02:25.098Z,6.20
2019-04-04T05:04:54.033Z,6.25
2019-04-04T05:07:22.734Z,6.30
2019-04-04T05:09:51.461Z,6.35
2019-04-04T05:12:21.852Z,6.36
2019-04-04T05:14:51.065Z,6.37
2019-04-04T05:17:20.136Z,6.38
2019-04-04T05:19:50.137Z,6.40
2019-04-04T05:22:19.387Z,6.43
2019-04-04T05:25:07.090Z,6.43
2019-04-04T05:27:18.773Z,6.50
2019-04-04T05:29:48.234Z,6.53
2019-04-04T05:32:20.951Z,6.55
2019-04-04T05:34:47.894Z,6.59
2019-04-04T05:37:16.969Z,6.63
2019-04-04T05:39:47.063Z,6.65
2019-04-04T05:42:16.344Z,6.66
2019-04-04T05:44:45.133Z,6.69
2019-04-04T05:47:14.095Z,6.72
2019-04-04T05:49:43.415Z,6.77
2019-04-04T05:52:12.582Z,6.80
2019-04-04T05:54:41.771Z,6.81
2019-04-04T05:57:11.024Z,6.80
2019-04-04T05:59:42.526Z,6.84
2019-04-04T06:02:12.177Z,6.88
2019-04-04T06:04:41.507Z,6.91
2019-04-04T06:07:10.192Z,6.96
2019-04-04T06:09:41.863Z,7.00
2019-04-04T06:12:09.999Z,7.03
2019-04-04T06:14:38.934Z,7.06
2019-04-04T06:17:07.945Z,7.09
2019-04-04T06:19:36.956Z,7.12
2019-04-04T06:22:05.652Z,7.13
2019-04-04T06:24:34.590Z,7.13
2019-04-04T06:27:03.697Z,7.15
2019-04-04T06:29:32.644Z,7.18
2019-04-04T06:32:01.391Z,7.19
2019-04-04T06:34:33.328Z,7.22
2019-04-04T06:37:02.362Z,7.23
2019-04-04T06:39:31.069Z,7.24
2019-04-04T06:42:02.884Z,7.27
2019-04-04T06:44:30.226Z,7.28
2019-04-04T06:47:01.877Z,7.30
2019-04-04T06:49:29.939Z,7.31
2019-04-04T06:51:58.710Z,7.32
2019-04-04T06:54:27.811Z,7.33
2019-04-04T06:56:59.055Z,7.36
2019-04-04T06:59:27.194Z,7.40
2019-04-04T07:01:55.908Z,7.46
2019-04-04T07:04:24.912Z,7.49
2019-04-04T07:06:53.870Z,7.56
2019-04-04T07:09:22.830Z,7.59
2019-04-04T07:11:51.839Z,7.60
2019-04-04T07:14:20.828Z,7.63
2019-04-04T07:16:49.594Z,7.71
2019-04-04T07:19:18.359Z,7.79
2019-04-04T07:21:49.155Z,7.87
2019-04-04T07:24:18.062Z,7.99
2019-04-04T07:26:47.470Z,8.10
2019-04-04T07:29:16.438Z,8.18
2019-04-04T07:31:45.164Z,8.24
2019-04-04T07:34:14.294Z,8.31
2019-04-04T07:36:43.278Z,8.41
2019-04-04T07:39:12.499Z,8.55
2019-04-04T07:41:44.733Z,8.63
2019-04-04T07:44:11.980Z,8.80
2019-04-04T07:46:41.246Z,8.92
2019-04-04T07:49:11.350Z,8.96
2019-04-04T07:51:40.055Z,8.93
2019-04-04T07:54:08.809Z,8.91
2019-04-04T07:56:37.580Z,8.91
2019-04-04T07:59:06.361Z,8.96
2019-04-04T08:01:35.093Z,9.00
2019-04-04T08:04:06.535Z,9.04
2019-04-04T08:06:34.857Z,9.12
2019-04-04T08:09:06.394Z,9.20
2019-04-04T08:11:35.149Z,9.27
2019-04-04T08:14:04.303Z,9.22
2019-04-04T08:16:33.392Z,9.18
2019-04-04T08:19:02.413Z,9.22
2019-04-04T08:21:31.387Z,9.27
2019-04-04T08:24:00.564Z,9.39
2019-04-04T08:26:29.267Z,9.53
2019-04-04T08:28:58.015Z,9.79
2019-04-04T08:31:27.004Z,9.89
2019-04-04T08:33:55.992Z,9.88
2019-04-04T08:36:24.941Z,9.92
2019-04-04T08:38:53.669Z,9.80
2019-04-04T08:41:22.970Z,9.68
2019-04-04T08:43:51.924Z,9.65
2019-04-04T08:46:20.933Z,9.71
2019-04-04T08:48:50.268Z,9.90
2019-04-04T08:51:19.568Z,10.13
2019-04-04T08:53:48.334Z,10.29
2019-04-04T08:56:17.305Z,10.45
2019-04-04T08:58:46.573Z,10.53
2019-04-04T09:01:15.515Z,10.48
2019-04-04T09:03:44.474Z,10.37
2019-04-04T09:08:46.918Z,10.28
2019-04-04T09:11:15.881Z,10.33
2019-04-04T09:13:44.607Z,10.32
2019-04-04T09:16:13.456Z,10.23
2019-04-04T09:18:42.424Z,10.13
2019-04-04T09:21:11.467Z,10.06
2019-04-04T09:23:40.243Z,10.03
2019-04-04T09:26:09.265Z,10.00
2019-04-04T09:28:37.964Z,9.99
2019-04-04T09:31:06.787Z,9.97
2019-04-04T09:33:35.583Z,10.01
2019-04-04T09:36:04.480Z,10.01
2019-04-04T09:38:33.563Z,9.97
2019-04-04T09:41:02.582Z,9.88
2019-04-04T09:43:31.944Z,9.87
2019-04-04T09:46:01.040Z,9.86
2019-04-04T09:48:30.055Z,9.79
2019-04-04T09:50:58.788Z,9.84
2019-04-04T09:53:27.892Z,9.87
2019-04-04T09:55:56.885Z,9.92
2019-04-04T09:58:25.916Z,9.94
2019-04-04T10:00:54.691Z,9.96
2019-04-04T10:03:23.634Z,10.01
2019-04-04T10:05:52.396Z,10.03
2019-04-04T10:08:21.097Z,10.04
2019-04-04T10:10:50.188Z,10.10
2019-04-04T10:13:19.151Z,10.13
2019-04-04T10:15:48.111Z,10.18
2019-04-04T10:18:17.147Z,10.24
2019-04-04T10:20:46.009Z,10.31
2019-04-04T10:23:14.968Z,10.36
2019-04-04T10:25:44.179Z,10.41
2019-04-04T10:28:12.942Z,10.44
2019-04-04T10:30:41.892Z,10.45
2019-04-04T10:33:10.905Z,10.44
2019-04-04T10:35:39.602Z,10.43
2019-04-04T10:38:08.587Z,10.35
2019-04-04T10:40:37.621Z,10.35
2019-04-04T10:43:06.664Z,10.40
2019-04-04T10:45:35.745Z,10.45
2019-04-04T10:48:04.763Z,10.51
2019-04-04T10:50:33.828Z,10.53
2019-04-04T10:53:02.835Z,10.55
2019-04-04T10:55:31.545Z,10.58
2019-04-04T10:58:05.775Z,10.53
2019-04-04T11:00:34.797Z,10.54
2019-04-04T11:03:03.567Z,10.56
2019-04-04T11:05:35.193Z,10.59
2019-04-04T11:08:02.739Z,10.63
2019-04-04T11:10:31.474Z,10.65
2019-04-04T11:13:02.719Z,10.69
2019-04-04T11:15:31.079Z,10.72
2019-04-04T11:18:00.087Z,10.78
2019-04-04T11:20:29.040Z,10.91
2019-04-04T11:22:58.019Z,10.99
2019-04-04T11:25:26.837Z,11.02
2019-04-04T11:27:55.832Z,10.99
2019-04-04T11:30:24.839Z,11.01
2019-04-04T11:32:54.204Z,11.02
2019-04-04T11:35:23.221Z,11.04
2019-04-04T11:37:51.954Z,11.11
2019-04-04T11:40:21.218Z,11.17
2019-04-04T11:42:49.967Z,11.25
2019-04-04T11:45:19.051Z,11.28
2019-04-04T11:47:47.851Z,11.26
2019-04-04T11:50:16.988Z,11.26
2019-04-04T11:52:46.004Z,11.23
2019-04-04T11:55:15.326Z,11.28
2019-04-04T11:57:43.975Z,11.32
2019-04-04T12:00:17.566Z,11.39
2019-04-04T12:02:46.541Z,11.47
2019-04-04T12:05:15.367Z,11.49
2019-04-04T12:07:44.389Z,11.44
2019-04-04T12:10:13.615Z,11.36
2019-04-04T12:12:42.564Z,11.33
2019-04-04T12:15:11.957Z,11.33
2019-04-04T12:17:40.924Z,11.31
2019-04-04T12:20:09.987Z,11.32
2019-04-04T12:22:38.941Z,11.33
2019-04-04T12:25:08.344Z,11.29
2019-04-04T12:27:37.116Z,11.25
2019-04-04T12:30:06.777Z,11.26
2019-04-04T12:32:35.788Z,11.23
2019-04-04T12:35:04.970Z,11.24
2019-04-04T12:37:34.068Z,11.23
2019-04-04T12:40:03.543Z,11.25
2019-04-04T12:42:32.474Z,11.24
2019-04-04T12:45:01.254Z,11.22
2019-04-04T12:47:30.280Z,11.18
2019-04-04T12:49:59.332Z,11.21
2019-04-04T12:52:28.281Z,11.23
2019-04-04T12:54:57.309Z,11.21
2019-04-04T12:57:26.496Z,11.23
2019-04-04T12:59:55.441Z,11.29
2019-04-04T13:02:24.225Z,11.30
2019-04-04T13:04:53.303Z,11.33
2019-04-04T13:07:22.203Z,11.37
2019-04-04T13:09:51.156Z,11.39
2019-04-04T13:12:20.497Z,11.37
2019-04-04T13:14:49.462Z,11.42
2019-04-04T13:17:18.166Z,11.47
2019-04-04T13:19:47.129Z,11.56
2019-04-04T13:22:16.528Z,11.64
2019-04-04T13:24:45.634Z,11.63
2019-04-04T13:27:14.493Z,11.60
2019-04-04T13:29:45.310Z,11.64
2019-04-04T13:32:14.258Z,11.69
2019-04-04T13:34:43.318Z,11.74
2019-04-04T13:37:12.052Z,11.80
2019-04-04T13:39:41.029Z,11.82
2019-04-04T13:42:09.742Z,11.83
2019-04-04T13:44:38.711Z,11.88
2019-04-04T13:47:07.834Z,11.93
2019-04-04T13:49:36.791Z,11.98
2019-04-04T13:52:08.120Z,12.01
2019-04-04T13:54:37.275Z,12.08
2019-04-04T13:57:06.698Z,12.11
2019-04-04T13:59:35.656Z,12.14
2019-04-04T14:02:04.794Z,12.12
2019-04-04T14:04:33.751Z,12.12
2019-04-04T14:07:03.610Z,12.19
2019-04-04T14:09:32.764Z,12.37
2019-04-04T14:12:01.733Z,12.50
2019-04-04T14:14:30.744Z,12.55
2019-04-04T14:16:59.918Z,12.58
2019-04-04T14:19:31.549Z,12.56
2019-04-04T14:22:01.140Z,12.59
2019-04-04T14:24:30.103Z,12.62
2019-04-04T14:26:58.874Z,12.63
2019-04-04T14:29:29.982Z,12.72
2019-04-04T14:31:59.050Z,12.79
2019-04-04T14:34:28.174Z,12.74
2019-04-04T14:36:57.118Z,12.66
2019-04-04T14:39:26.172Z,12.61
2019-04-04T14:41:54.883Z,12.56
2019-04-04T14:44:23.833Z,12.55
2019-04-04T14:46:52.871Z,12.51
2019-04-04T14:49:21.571Z,12.48
2019-04-04T14:51:50.515Z,12.47
2019-04-04T14:54:19.230Z,12.43
2019-04-04T14:56:48.273Z,12.35
2019-04-04T14:59:17.278Z,12.31
2019-04-04T15:01:46.298Z,12.32
2019-04-04T15:04:15.278Z,12.32
2019-04-04T15:06:44.375Z,12.33
2019-04-04T15:09:13.439Z,12.33
2019-04-04T15:11:42.393Z,12.27
2019-04-04T15:14:11.410Z,12.27
2019-04-04T15:16:40.351Z,12.25
2019-04-04T15:19:09.306Z,12.18
2019-04-04T15:21:38.038Z,12.14
2019-04-04T15:24:18.875Z,12.14
2019-04-04T15:26:58.442Z,12.13
2019-04-04T15:29:27.179Z,12.12
2019-04-04T15:31:58.545Z,12.12
2019-04-04T15:34:27.826Z,12.12
2019-04-04T15:36:58.528Z,12.14
2019-04-04T15:39:28.183Z,12.14
2019-04-04T15:41:57.178Z,12.15
2019-04-04T15:44:26.254Z,12.12
2019-04-04T15:46:54.979Z,12.08
2019-04-04T15:49:24.013Z,12.03
2019-04-04T15:51:53.216Z,12.00
2019-04-04T15:54:22.151Z,11.97
2019-04-04T15:56:51.210Z,11.95
2019-04-04T15:59:20.123Z,11.92
2019-04-04T16:01:48.963Z,11.89
2019-04-04T16:04:17.683Z,11.85
2019-04-04T16:06:46.947Z,11.78
2019-04-04T16:09:15.890Z,11.73
2019-04-04T16:11:49.850Z,11.66
2019-04-04T16:14:15.531Z,11.60
2019-04-04T16:16:44.512Z,11.56
2019-04-04T16:19:13.522Z,11.50
2019-04-04T16:21:42.492Z,11.46
2019-04-04T16:24:11.239Z,11.40
2019-04-04T16:26:40.203Z,11.35
2019-04-04T16:29:09.201Z,11.31
2019-04-04T16:31:38.203Z,11.28
2019-04-04T16:34:07.342Z,11.24
2019-04-04T16:36:36.282Z,11.20
2019-04-04T16:39:08.217Z,11.19
2019-04-04T16:41:37.304Z,11.17
2019-04-04T16:44:06.196Z,11.14
2019-04-04T16:46:35.431Z,11.12
2019-04-04T16:49:04.670Z,11.11
2019-04-04T16:51:33.630Z,11.11
2019-04-04T16:54:02.889Z,11.09
2019-04-04T16:56:32.289Z,11.04
2019-04-04T16:59:01.031Z,10.99
2019-04-04T17:01:30.038Z,10.94
2019-04-04T17:04:01.796Z,10.90
2019-04-04T17:06:29.694Z,10.84
2019-04-04T17:08:58.643Z,10.78
2019-04-04T17:11:27.668Z,10.72
2019-04-04T17:13:56.515Z,10.65
2019-04-04T17:16:25.245Z,10.58
2019-04-04T17:18:54.827Z,10.49
2019-04-04T17:21:23.950Z,10.41
2019-04-04T17:23:52.903Z,10.34
2019-04-04T17:26:21.861Z,10.29
2019-04-04T17:28:51.366Z,10.23
2019-04-04T17:31:20.310Z,10.18
2019-04-04T17:33:49.569Z,10.14
2019-04-04T17:36:20.583Z,10.06
2019-04-04T17:38:49.137Z,10.01
2019-04-04T17:41:18.808Z,9.96
2019-04-04T17:43:47.531Z,9.90
2019-04-04T17:46:16.221Z,9.84
2019-04-04T17:48:59.802Z,9.80
2019-04-04T17:51:28.746Z,9.75
2019-04-04T17:53:58.190Z,9.70
2019-04-04T17:56:27.551Z,9.63
2019-04-04T17:58:56.491Z,9.58
2019-04-04T18:01:25.502Z,9.53
2019-04-04T18:03:54.495Z,9.49
2019-04-04T18:06:23.651Z,9.43
2019-04-04T18:08:52.608Z,9.40
2019-04-04T18:11:21.686Z,9.38
2019-04-04T18:13:50.634Z,9.33
2019-04-04T18:16:19.752Z,9.29
2019-04-04T18:18:48.714Z,9.23
2019-04-04T18:21:17.650Z,9.20
2019-04-04T18:23:46.620Z,9.16
2019-04-04T18:26:15.590Z,9.10
2019-04-04T18:28:44.436Z,9.06
2019-04-04T18:31:13.381Z,9.04
2019-04-04T18:33:42.478Z,9.00
2019-04-04T18:36:11.612Z,8.95
2019-04-04T18:38:43.722Z,8.92
2019-04-04T18:41:13.158Z,8.89
2019-04-04T18:43:42.125Z,8.83
2019-04-04T18:46:11.141Z,8.79
2019-04-04T18:48:40.043Z,8.75
2019-04-04T18:51:08.740Z,8.72
2019-04-04T18:53:37.714Z,8.69
2019-04-04T18:56:08.137Z,8.65
2019-04-04T18:58:36.841Z,8.65
2019-04-04T19:01:06.098Z,8.65
2019-04-04T19:03:35.141Z,8.63
2019-04-04T19:06:03.854Z,8.60
2019-04-04T19:08:34.502Z,8.56
2019-04-04T19:11:03.598Z,8.54
2019-04-04T19:13:43.758Z,8.51
2019-04-04T19:16:03.974Z,8.48
2019-04-04T19:18:33.460Z,8.45
2019-04-04T19:21:02.579Z,8.41
2019-04-04T19:23:43.595Z,8.38
2019-04-04T19:26:04.916Z,8.34
2019-04-04T19:28:34.759Z,8.29
2019-04-04T19:31:04.340Z,8.19
2019-04-04T19:33:34.959Z,8.21
2019-04-04T19:36:04.182Z,8.15
2019-04-04T19:38:42.797Z,8.12
2019-04-04T19:41:14.055Z,8.09
2019-04-04T19:43:46.262Z,8.03
2019-04-04T19:46:15.062Z,7.98
2019-04-04T19:48:44.082Z,7.95
2019-04-04T19:51:13.116Z,7.90
2019-04-04T19:53:45.138Z,7.87
2019-04-04T19:56:34.606Z,7.83
2019-04-04T19:59:23.174Z,7.82
2019-04-04T20:01:52.421Z,7.76
2019-04-04T20:04:21.811Z,7.74
2019-04-04T20:06:50.802Z,7.71
2019-04-04T20:09:23.519Z,7.68
2019-04-04T20:11:52.737Z,7.62
2019-04-04T20:14:21.939Z,7.58
2019-04-04T20:16:51.011Z,7.57
2019-04-04T20:19:20.375Z,7.51
2019-04-04T20:21:49.411Z,7.48
2019-04-04T20:24:38.414Z,7.46
2019-04-04T20:27:07.418Z,7.44
2019-04-04T20:30:14.238Z,7.43
2019-04-04T20:32:43.273Z,7.43
2019-04-04T20:35:12.423Z,7.42
2019-04-04T20:37:41.390Z,7.42
2019-04-04T20:40:10.204Z,7.40
2019-04-04T20:42:39.292Z,7.37
2019-04-04T20:45:08.603Z,7.31
2019-04-04T20:47:37.688Z,7.28
2019-04-04T20:50:09.983Z,7.22
2019-04-04T20:52:39.028Z,7.20
2019-04-04T20:57:56.319Z,7.18
2019-04-04T21:00:25.282Z,7.15
2019-04-04T21:02:54.248Z,7.12
2019-04-04T21:08:20.388Z,7.09
2019-04-04T21:10:51.114Z,7.05
2019-04-04T21:13:19.895Z,7.03
2019-04-04T21:15:51.544Z,7.01
2019-04-04T21:18:20.503Z,6.97
2019-04-04T21:20:49.210Z,6.96
2019-04-04T21:23:18.274Z,6.92
2019-04-04T21:25:47.343Z,6.89
2019-04-04T21:28:16.328Z,6.85
2019-04-04T21:30:47.862Z,6.84
2019-04-04T21:33:17.732Z,6.82
2019-04-04T21:35:50.553Z,6.80
2019-04-04T21:39:20.698Z,6.77
2019-04-04T21:41:50.660Z,6.74
2019-04-04T21:44:19.454Z,6.72
2019-04-04T21:46:48.575Z,6.69
2019-04-04T21:49:17.598Z,6.69
2019-04-04T21:51:46.554Z,6.70
2019-04-04T21:54:15.571Z,6.67
2019-04-04T21:56:44.539Z,6.68
2019-04-04T21:59:13.604Z,6.69
2019-04-04T22:01:42.485Z,6.68
2019-04-04T22:04:11.566Z,6.71
2019-04-04T22:06:40.606Z,6.73
2019-04-04T22:09:15.003Z,6.78
2019-04-04T22:11:43.863Z,6.79
2019-04-04T22:14:21.654Z,6.83
2019-04-04T22:16:43.579Z,6.89
2019-04-04T22:19:13.845Z,6.94
2019-04-04T22:21:43.250Z,6.98
2019-04-04T22:24:12.335Z,7.03
2019-04-04T22:30:23.097Z,7.09
2019-04-04T22:32:53.645Z,7.11
2019-04-04T22:35:24.220Z,7.12
2019-04-04T22:37:53.160Z,7.15
2019-04-04T22:40:24.055Z,7.18
2019-04-04T22:42:53.044Z,7.20
2019-04-04T22:45:23.846Z,7.22
2019-04-04T22:47:52.794Z,7.22
2019-04-04T22:50:21.767Z,7.22
2019-04-04T22:52:50.541Z,7.25
2019-04-04T22:55:19.755Z,7.30
2019-04-04T22:57:48.476Z,7.27
2019-04-04T23:00:17.262Z,7.24
2019-04-04T23:02:46.529Z,7.28
2019-04-04T23:05:15.630Z,7.28
2019-04-04T23:08:01.101Z,7.27
2019-04-04T23:10:30.240Z,7.28
2019-04-04T23:12:58.989Z,7.28
2019-04-04T23:15:27.949Z,7.29
2019-04-04T23:17:56.658Z,7.29
2019-04-04T23:20:25.634Z,7.32
2019-04-04T23:22:54.764Z,7.34
2019-04-04T23:25:23.484Z,7.34
2019-04-04T23:27:52.678Z,7.33
2019-04-04T23:30:21.774Z,7.33
2019-04-04T23:32:51.674Z,7.31
2019-04-04T23:35:20.375Z,7.31
2019-04-04T23:37:49.309Z,7.31
2019-04-04T23:40:18.315Z,7.34
2019-04-04T23:42:47.343Z,7.34
2019-04-04T23:45:16.397Z,7.35
2019-04-04T23:47:45.421Z,7.35
2019-04-04T23:50:14.466Z,7.35
2019-04-04T23:53:45.488Z,7.34
2019-04-04T23:56:16.822Z,7.37
2019-04-04T23:59:05.514Z,7.36
